Time;durP1;ratioP1;P1;durP2;ratioP2;P2;SDS_P1;SDS_P2;PMS_P1;PMS_P2;Temp;Humidity;BMP_temperature;BMP_pressure;BME280_temperature;BME280_humidity;BME280_pressure;Samples;Min_cycle;Max_cycle;Signal;HPM_P1;HPM_P2
2020/12/19 00:01:03;;;;;;;2.37;2.28;;;;;;;4.05;100.00;101125.28;4395858;32;20092;-70
2020/12/19 00:03:28;;;;;;;2.00;1.90;;;;;;;4.12;100.00;101129.81;4387641;32;20531;-69
2020/12/19 00:05:54;;;;;;;3.00;2.90;;;;;;;4.07;100.00;101108.25;4397452;32;20086;-69
2020/12/19 00:08:19;;;;;;;4.53;4.30;;;;;;;4.09;100.00;101116.88;4397856;32;20080;-70
2020/12/19 00:10:44;;;;;;;2.20;2.10;;;;;;;4.12;100.00;101116.56;4380481;32;20645;-68
2020/12/19 00:13:10;;;;;;;2.30;2.20;;;;;;;4.10;100.00;101107.94;4398263;32;20077;-69
2020/12/19 00:15:35;;;;;;;2.20;2.10;;;;;;;3.72;100.00;101041.19;4385894;32;20080;-70
2020/12/19 00:18:01;;;;;;;2.20;2.10;;;;;;;4.10;100.00;101107.94;4397076;32;20104;-69
2020/12/19 00:20:26;;;;;;;2.20;2.10;;;;;;;4.10;100.00;101105.28;4381467;32;20509;-68
2020/12/19 00:22:51;;;;;;;2.10;2.00;;;;;;;4.13;100.00;101104.97;4399576;32;20133;-69
2020/12/19 00:25:17;;;;;;;2.30;2.20;;;;;;;4.17;100.00;101100.19;4391554;32;20198;-69
2020/12/19 00:27:44;;;;;;;2.00;1.90;;;;;;;4.20;100.00;101099.88;4401445;32;20073;-69
2020/12/19 00:30:09;;;;;;;2.20;2.10;;;;;;;4.11;100.00;101092.88;4399411;32;20064;-69
2020/12/19 00:32:38;;;;;;;2.03;1.92;;;;;;;4.01;100.00;101076.28;4376657;32;20704;-69
2020/12/19 00:35:03;;;;;;;2.05;1.95;;;;;;;4.19;100.00;101085.00;4399566;32;20542;-70
2020/12/19 00:37:29;;;;;;;2.20;2.10;;;;;;;4.25;100.00;101094.94;4381222;32;20080;-67
2020/12/19 00:39:54;;;;;;;2.40;2.30;;;;;;;4.21;100.00;101087.47;4395767;32;20066;-68
2020/12/19 00:42:19;;;;;;;2.10;2.00;;;;;;;4.22;100.00;101081.19;4388824;32;20139;-68
2020/12/19 00:44:45;;;;;;;1.73;1.73;;;;;;;4.21;100.00;101075.09;4407080;32;20075;-68
2020/12/19 00:47:10;;;;;;;2.17;2.08;;;;;;;4.20;100.00;101075.22;4394414;32;20889;-69
2020/12/19 00:49:36;;;;;;;2.10;2.00;;;;;;;4.24;100.00;101071.28;4382470;32;20720;-68
2020/12/19 00:52:01;;;;;;;1.90;1.90;;;;;;;4.19;100.00;101066.47;4382429;32;20554;-69
2020/12/19 00:54:26;;;;;;;2.05;1.95;;;;;;;4.16;100.00;101060.63;4398254;32;20077;-69
2020/12/19 00:56:52;;;;;;;1.90;1.87;;;;;;;4.19;100.00;101062.97;4394908;32;20076;-69
2020/12/19 00:59:18;;;;;;;1.80;1.80;;;;;;;4.18;100.00;101056.03;4400201;32;20147;-69
2020/12/19 01:01:43;;;;;;;2.40;2.30;;;;;;;4.17;100.00;101044.59;4383436;32;20092;-69
2020/12/19 01:04:09;;;;;;;2.20;2.10;;;;;;;4.16;100.00;101044.75;4396160;32;20487;-69
2020/12/19 01:06:34;;;;;;;2.58;2.47;;;;;;;4.16;100.00;101036.81;4400233;32;20073;-68
2020/12/19 01:09:00;;;;;;;2.20;2.10;;;;;;;4.12;100.00;101015.97;4401993;32;20091;-68
2020/12/19 01:11:26;;;;;;;2.10;2.00;;;;;;;4.13;100.00;101030.84;4400115;32;20090;-68
2020/12/19 01:13:52;;;;;;;1.98;1.87;;;;;;;4.17;100.00;101030.53;4394072;32;20171;-69
2020/12/19 01:16:21;;;;;;;2.10;2.00;;;;;;;4.13;100.00;101022.91;4403796;32;20973;-69
2020/12/19 01:18:47;;;;;;;2.50;2.40;;;;;;;4.14;100.00;101032.50;4379078;32;20202;-68
2020/12/19 01:21:13;;;;;;;1.95;1.85;;;;;;;4.13;100.00;101028.19;4390244;32;20085;-68
2020/12/19 01:23:39;;;;;;;2.10;2.00;;;;;;;4.16;100.00;101026.22;4399844;32;20083;-68
2020/12/19 01:26:04;;;;;;;2.15;2.05;;;;;;;4.09;100.00;101000.41;4393619;32;20097;-68
2020/12/19 01:28:30;;;;;;;2.00;1.90;;;;;;;4.22;100.00;101012.34;4383310;32;20944;-69
2020/12/19 01:30:55;;;;;;;2.30;2.20;;;;;;;4.29;100.00;101016.87;4396676;32;20410;-68
2020/12/19 01:33:20;;;;;;;2.00;1.90;;;;;;;4.27;100.00;101033.91;4382506;32;20071;-68
2020/12/19 01:35:46;;;;;;;2.20;2.10;;;;;;;4.24;100.00;101007.72;4396115;32;20677;-69
2020/12/19 01:38:11;;;;;;;2.33;2.22;;;;;;;4.16;100.00;101015.63;4385694;32;20269;-69
2020/12/19 01:40:37;;;;;;;2.20;2.10;;;;;;;3.72;100.00;100977.69;4399741;32;20091;-69
2020/12/19 01:43:03;;;;;;;2.17;2.08;;;;;;;4.07;100.00;101028.00;4383666;32;20146;-69
2020/12/19 01:45:29;;;;;;;2.20;2.10;;;;;;;4.02;100.00;101039.06;4384177;32;20629;-68
2020/12/19 01:47:54;;;;;;;2.10;2.00;;;;;;;4.05;100.00;101024.69;4395460;32;20376;-69
2020/12/19 01:50:19;;;;;;;2.40;2.30;;;;;;;4.14;100.00;101029.06;4382019;32;20106;-69
2020/12/19 01:52:45;;;;;;;2.17;2.08;;;;;;;4.12;100.00;101031.84;4398099;32;20076;-69
2020/12/19 01:55:10;;;;;;;2.35;2.25;;;;;;;4.01;100.00;101008.28;4393818;32;20093;-68
2020/12/19 01:57:36;;;;;;;2.00;1.90;;;;;;;4.24;100.00;101028.91;4404396;32;20084;-68
2020/12/19 02:00:01;;;;;;;2.20;2.10;;;;;;;4.31;100.00;101028.12;4396535;32;20587;-69
2020/12/19 02:02:26;;;;;;;2.00;1.90;;;;;;;4.28;100.00;101025.78;4391007;32;20143;-68
2020/12/19 02:04:52;;;;;;;2.25;2.15;;;;;;;3.39;100.00;100871.72;4399760;32;20088;-68
2020/12/19 02:07:18;;;;;;;1.80;1.80;;;;;;;4.31;100.00;101019.34;4398920;32;20306;-68
2020/12/19 02:09:44;;;;;;;2.12;2.03;;;;;;;4.36;100.00;101014.38;4396519;32;20064;-68
2020/12/19 02:12:09;;;;;;;2.10;2.00;;;;;;;4.31;100.00;101004.28;4381494;32;20065;-68
2020/12/19 02:14:35;;;;;;;2.58;2.47;;;;;;;4.37;100.00;101005.47;4385857;32;20154;-68
2020/12/19 02:17:12;;;;;;;2.17;2.08;;;;;;;4.41;100.00;101005.97;4385946;32;20118;-68
2020/12/19 02:19:38;;;;;;;2.58;2.47;;;;;;;4.41;100.00;101004.16;4384500;32;20111;-68
2020/12/19 02:22:05;;;;;;;2.22;2.12;;;;;;;4.46;100.00;100995.72;4382571;32;20176;-68
2020/12/19 02:24:30;;;;;;;2.30;2.20;;;;;;;4.43;100.00;100999.53;4385310;32;20155;-68
2020/12/19 02:26:56;;;;;;;1.95;1.87;;;;;;;4.44;100.00;100995.06;4393373;32;20083;-68
2020/12/19 02:29:22;;;;;;;1.95;1.87;;;;;;;4.44;100.00;100987.13;4385459;32;20068;-67
2020/12/19 02:31:48;;;;;;;1.80;1.80;;;;;;;4.39;100.00;100998.19;4380596;32;20207;-68
2020/12/19 02:34:13;;;;;;;2.00;1.90;;;;;;;4.33;100.00;100999.66;4396843;32;20061;-68
2020/12/19 02:36:39;;;;;;;2.28;2.17;;;;;;;4.36;100.00;100989.72;4376718;32;20108;-68
2020/12/19 02:39:04;;;;;;;2.00;1.90;;;;;;;4.34;100.00;100995.19;4401979;32;20650;-68
2020/12/19 02:41:30;;;;;;;1.92;1.87;;;;;;;4.29;100.00;100997.50;4379971;32;20087;-67
2020/12/19 02:43:56;;;;;;;1.95;1.87;;;;;;;4.31;100.00;101006.09;4394444;32;20804;-67
2020/12/19 02:46:21;;;;;;;1.73;1.73;;;;;;;4.33;100.00;100985.59;4383157;32;20318;-69
2020/12/19 02:48:47;;;;;;;1.77;1.77;;;;;;;4.28;100.00;100996.66;4391571;32;20231;-68
2020/12/19 02:51:13;;;;;;;2.10;2.00;;;;;;;3.41;100.00;100853.06;4394758;32;20065;-68
2020/12/19 02:53:39;;;;;;;1.90;1.87;;;;;;;4.26;100.00;100989.84;4385316;32;20065;-69
2020/12/19 02:56:04;;;;;;;2.20;2.10;;;;;;;4.24;100.00;100990.03;4399090;32;20252;-68
2020/12/19 02:58:29;;;;;;;2.10;2.00;;;;;;;4.25;100.00;100993.50;4386812;32;20088;-68
2020/12/19 03:00:55;;;;;;;2.30;2.20;;;;;;;4.28;100.00;100982.59;4396575;32;20559;-69
2020/12/19 03:03:20;;;;;;;1.70;1.70;;;;;;;4.34;100.00;100989.87;4403769;32;20069;-68
2020/12/19 03:05:46;;;;;;;3.58;3.37;;;;;;;4.31;100.00;100990.22;4392875;32;20724;-68
2020/12/19 03:08:11;;;;;;;2.00;1.90;;;;;;;4.36;100.00;100990.56;4394175;32;20076;-69
2020/12/19 03:10:36;;;;;;;2.58;2.42;;;;;;;4.40;100.00;100985.75;4387410;32;20088;-68
2020/12/19 03:13:02;;;;;;;2.37;2.28;;;;;;;4.40;100.00;100991.91;4391448;32;20073;-69
2020/12/19 03:15:28;;;;;;;1.80;1.80;;;;;;;4.39;100.00;100984.12;4391598;32;20387;-69
2020/12/19 03:17:53;;;;;;;2.30;2.20;;;;;;;4.41;100.00;100982.13;4397333;32;20447;-69
2020/12/19 03:20:19;;;;;;;2.03;1.92;;;;;;;4.42;100.00;100974.03;4388895;32;20677;-69
2020/12/19 03:22:44;;;;;;;2.00;1.90;;;;;;;4.46;100.00;100979.84;4382414;32;20091;-68
2020/12/19 03:25:09;;;;;;;2.30;2.20;;;;;;;4.37;100.00;100980.81;4398243;32;20080;-69
2020/12/19 03:27:35;;;;;;;2.35;2.25;;;;;;;4.21;100.00;100981.56;4387631;32;20092;-69
2020/12/19 03:30:00;;;;;;;2.20;2.10;;;;;;;4.27;100.00;100980.94;4384247;32;20574;-69
2020/12/19 03:32:26;;;;;;;2.00;1.90;;;;;;;4.29;100.00;100971.00;4398724;32;20076;-70
2020/12/19 03:34:51;;;;;;;1.77;1.77;;;;;;;4.30;100.00;100972.69;4377888;32;20621;-69
2020/12/19 03:37:16;;;;;;;2.05;1.95;;;;;;;4.15;100.00;100956.56;4397282;32;20069;-70
2020/12/19 03:39:42;;;;;;;1.85;1.80;;;;;;;4.18;100.00;100963.38;4379948;32;20081;-69
2020/12/19 03:42:07;;;;;;;1.75;1.75;;;;;;;4.27;100.00;100965.03;4403496;32;20500;-69
2020/12/19 03:44:32;;;;;;;2.10;2.00;;;;;;;4.24;100.00;100962.72;4382600;32;20583;-68
2020/12/19 03:46:58;;;;;;;2.15;2.05;;;;;;;4.30;100.00;100967.38;4401183;32;20083;-68
2020/12/19 03:49:23;;;;;;;1.80;1.80;;;;;;;4.22;100.00;100956.75;4380681;32;20479;-68
2020/12/19 03:51:49;;;;;;;2.10;2.00;;;;;;;4.26;100.00;100966.03;4385751;32;20072;-69
2020/12/19 03:54:14;;;;;;;2.00;1.95;;;;;;;4.23;100.00;100963.72;4398016;32;20335;-68
2020/12/19 03:56:39;;;;;;;2.10;2.00;;;;;;;4.22;100.00;100962.87;4412190;32;20079;-68
2020/12/19 03:59:05;;;;;;;3.10;3.00;;;;;;;3.16;100.00;100786.03;4383170;32;20621;-69
2020/12/19 04:01:30;;;;;;;2.50;2.40;;;;;;;4.19;100.00;100959.72;4386031;32;20088;-69
2020/12/19 04:03:55;;;;;;;2.20;2.10;;;;;;;4.21;100.00;100961.22;4406905;32;20095;-69
2020/12/19 04:06:21;;;;;;;2.85;2.65;;;;;;;4.18;100.00;100960.72;4379760;32;20134;-68
2020/12/19 04:08:46;;;;;;;2.15;2.05;;;;;;;4.22;100.00;100951.47;4401455;32;20444;-68
2020/12/19 04:11:12;;;;;;;2.28;2.17;;;;;;;4.20;100.00;100956.09;4384857;32;20676;-69
2020/12/19 04:13:37;;;;;;;2.15;2.05;;;;;;;4.14;100.00;100952.28;4383939;32;20077;-70
2020/12/19 04:16:02;;;;;;;2.22;2.12;;;;;;;4.13;100.00;100954.06;4398023;32;20165;-69
2020/12/19 04:18:28;;;;;;;2.10;2.00;;;;;;;4.14;100.00;100946.97;4386445;32;20104;-68
2020/12/19 04:20:53;;;;;;;2.20;2.10;;;;;;;4.14;100.00;100947.81;4399575;32;20179;-68
2020/12/19 04:23:19;;;;;;;1.80;1.80;;;;;;;4.15;100.00;100945.97;4394843;32;20069;-67
2020/12/19 04:25:44;;;;;;;2.10;2.00;;;;;;;4.18;100.00;100952.78;4399832;32;20173;-69
2020/12/19 04:28:10;;;;;;;1.75;1.75;;;;;;;4.03;100.00;100936.66;4389305;32;20092;-68
2020/12/19 04:30:35;;;;;;;2.00;1.90;;;;;;;4.01;100.00;100938.66;4400823;32;20457;-69
2020/12/19 04:33:00;;;;;;;2.40;2.30;;;;;;;4.02;100.00;100942.94;4384004;32;20082;-69
2020/12/19 04:35:26;;;;;;;2.37;2.28;;;;;;;3.92;100.00;100933.31;4403910;32;20073;-68
2020/12/19 04:37:51;;;;;;;1.80;1.80;;;;;;;3.97;100.00;100943.44;4385742;32;20540;-69
2020/12/19 04:40:17;;;;;;;1.80;1.80;;;;;;;3.96;100.00;100944.41;4400842;32;20580;-69
2020/12/19 04:42:42;;;;;;;2.10;2.00;;;;;;;3.91;100.00;100944.06;4390420;32;20072;-68
2020/12/19 04:45:08;;;;;;;2.12;2.03;;;;;;;3.89;100.00;100940.75;4401177;32;20080;-69
2020/12/19 04:47:33;;;;;;;2.10;2.00;;;;;;;3.90;100.00;100931.84;4397225;32;20190;-69
2020/12/19 04:49:59;;;;;;;2.40;2.30;;;;;;;3.90;100.00;100937.12;4403133;32;20073;-68
2020/12/19 04:52:24;;;;;;;1.87;1.85;;;;;;;3.56;100.00;100872.62;4383256;32;20484;-68
2020/12/19 04:54:50;;;;;;;2.10;2.00;;;;;;;3.84;100.00;100921.87;4398842;32;20065;-69
2020/12/19 04:57:17;;;;;;;1.80;1.80;;;;;;;3.87;100.00;100922.38;4409039;32;20652;-68
2020/12/19 04:59:43;;;;;;;2.20;2.10;;;;;;;3.84;100.00;100930.62;4405375;32;20992;-68
2020/12/19 05:02:08;;;;;;;1.80;1.80;;;;;;;3.85;100.00;100923.53;4393676;32;20458;-69
2020/12/19 05:04:37;;;;;;;2.08;1.98;;;;;;;3.86;100.00;100925.19;4400955;32;20075;-69
2020/12/19 05:07:06;;;;;;;2.53;2.42;;;;;;;3.88;100.00;100923.19;4380367;32;20464;-69
2020/12/19 05:09:34;;;;;;;2.00;1.90;;;;;;;3.83;100.00;100921.06;4385710;32;20807;-68
2020/12/19 05:12:01;;;;;;;2.25;2.15;;;;;;;2.98;100.00;100772.87;4395651;32;20428;-70
2020/12/19 05:14:26;;;;;;;2.20;2.10;;;;;;;3.88;100.00;100917.91;4397813;32;20077;-69
2020/12/19 05:16:51;;;;;;;1.90;1.80;;;;;;;3.82;100.00;100939.72;4395659;32;20456;-69
2020/12/19 05:19:17;;;;;;;2.08;1.98;;;;;;;3.91;100.00;100909.66;4399485;32;20061;-69
2020/12/19 05:21:45;;;;;;;1.80;1.80;;;;;;;3.95;100.00;100913.66;4385264;32;20084;-69
2020/12/19 05:24:15;;;;;;;2.20;2.10;;;;;;;3.98;100.00;100918.63;4396846;32;20087;-68
2020/12/19 05:26:42;;;;;;;2.30;2.20;;;;;;;3.99;100.00;100906.22;4385834;32;20666;-69
2020/12/19 05:29:07;;;;;;;2.37;2.28;;;;;;;3.92;100.00;100908.69;4395711;32;20365;-69
2020/12/19 05:31:33;;;;;;;2.20;2.10;;;;;;;3.98;100.00;100915.16;4386702;32;20587;-69
2020/12/19 05:33:59;;;;;;;2.03;1.95;;;;;;;3.96;100.00;100910.00;4397417;32;20093;-68
2020/12/19 05:36:28;;;;;;;2.10;2.00;;;;;;;3.94;100.00;100896.94;4386400;32;20636;-69
2020/12/19 05:38:55;;;;;;;1.80;1.80;;;;;;;3.93;100.00;100894.44;4390620;32;20134;-68
2020/12/19 05:41:22;;;;;;;2.22;2.12;;;;;;;4.02;100.00;100896.16;4399161;32;20077;-69
2020/12/19 05:43:51;;;;;;;2.30;2.20;;;;;;;4.01;100.00;100896.31;4395803;32;20665;-68
2020/12/19 05:46:46;;;;;;;2.20;2.10;;;;;;;4.04;100.00;100902.09;4386954;32;20079;-69
2020/12/19 05:49:11;;;;;;;2.20;2.10;;;;;;;4.06;100.00;100896.66;4378791;32;20192;-69
2020/12/19 05:51:38;;;;;;;2.00;1.90;;;;;;;4.07;100.00;100893.00;4384883;32;20139;-68
2020/12/19 05:54:04;;;;;;;2.30;2.20;;;;;;;3.81;100.00;100853.38;4398101;32;20107;-67
2020/12/19 05:56:33;;;;;;;2.10;2.00;;;;;;;4.03;100.00;100896.97;4408890;32;20083;-68
2020/12/19 05:59:00;;;;;;;1.95;1.85;;;;;;;4.04;100.00;100886.22;4384251;32;20092;-68
2020/12/19 06:01:26;;;;;;;2.22;2.12;;;;;;;4.11;100.00;100883.75;4398706;32;20127;-68
2020/12/19 06:03:51;;;;;;;2.08;2.00;;;;;;;4.08;100.00;100884.06;4386046;32;20712;-68
2020/12/19 06:06:17;;;;;;;2.20;2.10;;;;;;;3.99;100.00;100872.62;4394449;32;20068;-68
2020/12/19 06:08:42;;;;;;;2.00;1.90;;;;;;;4.03;100.00;100883.72;4398783;32;20149;-68
2020/12/19 06:11:14;;;;;;;2.20;2.10;;;;;;;3.98;100.00;100894.78;4397015;32;20114;-68
2020/12/19 06:13:39;;;;;;;2.07;1.97;;;;;;;3.94;100.00;100873.12;4394598;32;20582;-69
2020/12/19 06:16:10;;;;;;;2.20;2.10;;;;;;;3.88;100.00;100870.28;4391927;32;20091;-71
2020/12/19 06:18:35;;;;;;;2.00;1.90;;;;;;;3.84;100.00;100875.06;4385552;32;20079;-68
2020/12/19 06:21:02;;;;;;;2.10;2.00;;;;;;;3.82;100.00;100863.00;4411688;32;20201;-69
2020/12/19 06:23:34;;;;;;;1.60;1.60;;;;;;;3.78;100.00;100837.84;4394874;32;20231;-68
2020/12/19 06:26:00;;;;;;;2.30;2.20;;;;;;;3.97;100.00;100882.56;4397721;32;20083;-68
2020/12/19 06:28:41;;;;;;;1.80;1.80;;;;;;;4.05;100.00;100877.31;4401751;32;20080;-68
2020/12/19 06:31:06;;;;;;;2.10;2.00;;;;;;;4.04;100.00;100867.69;4421227;32;20330;-69
2020/12/19 06:33:35;;;;;;;2.00;1.90;;;;;;;4.01;100.00;100875.94;4402340;32;20078;-69
2020/12/19 06:36:20;;;;;;;2.00;1.90;;;;;;;4.07;100.00;100877.97;4383925;32;20598;-68
2020/12/19 06:38:48;;;;;;;1.80;1.80;;;;;;;4.08;100.00;100876.12;4400344;32;20207;-69
2020/12/19 06:41:56;;;;;;;2.25;2.15;;;;;;;4.15;100.00;100879.78;4381279;32;20057;-69
2020/12/19 06:44:33;;;;;;;2.50;2.40;;;;;;;3.87;100.00;100837.72;4406946;32;20064;-68
2020/12/19 06:47:02;;;;;;;2.03;1.95;;;;;;;4.17;100.00;100887.56;4395917;32;20211;-69
2020/12/19 06:49:30;;;;;;;1.80;1.80;;;;;;;4.19;100.00;100888.22;4386898;32;20096;-68
2020/12/19 06:52:08;;;;;;;2.15;2.05;;;;;;;4.10;100.00;100890.84;4395515;32;20061;-68
2020/12/19 06:54:41;;;;;;;2.20;2.10;;;;;;;4.22;100.00;100879.97;4400914;32;20089;-69
2020/12/19 06:57:33;;;;;;;2.00;1.90;;;;;;;4.24;100.00;100886.78;4386689;32;20214;-68
2020/12/19 07:00:21;;;;;;;1.87;1.87;;;;;;;4.28;100.00;100882.81;4396845;32;20538;-67
2020/12/19 07:02:54;;;;;;;2.08;1.98;;;;;;;4.29;100.00;100881.81;4397692;32;20068;-68
2020/12/19 07:05:21;;;;;;;1.83;1.83;;;;;;;4.37;100.00;100885.47;4385713;32;20720;-69
2020/12/19 07:07:46;;;;;;;2.20;2.10;;;;;;;4.37;100.00;100870.41;4392626;32;20083;-68
2020/12/19 07:10:11;;;;;;;1.80;1.80;;;;;;;4.44;100.00;100876.69;4403140;32;20076;-68
2020/12/19 07:12:40;;;;;;;1.80;1.80;;;;;;;4.43;100.00;100875.06;4391816;32;20085;-67
2020/12/19 07:15:07;;;;;;;2.72;2.62;;;;;;;4.45;100.00;100875.72;4401617;32;20680;-70
2020/12/19 07:17:43;;;;;;;2.28;2.17;;;;;;;4.45;100.00;100893.41;4398959;32;20073;-68
2020/12/19 07:20:09;;;;;;;2.45;2.35;;;;;;;4.46;100.00;100901.19;4397911;32;20130;-68
2020/12/19 07:22:34;;;;;;;2.42;2.33;;;;;;;4.45;100.00;100906.66;4395951;32;20084;-69
2020/12/19 07:24:59;;;;;;;2.37;2.28;;;;;;;4.45;100.00;100901.34;4384724;32;20081;-71
2020/12/19 07:27:25;;;;;;;2.00;1.90;;;;;;;4.44;100.00;100902.38;4398176;32;20061;-67
2020/12/19 07:29:57;;;;;;;1.80;1.80;;;;;;;4.50;100.00;100917.59;4399616;32;20223;-67
2020/12/19 07:32:23;;;;;;;1.70;1.70;;;;;;;4.44;100.00;100908.47;4386927;32;20077;-68
2020/12/19 07:34:52;;;;;;;1.95;1.90;;;;;;;4.47;100.00;100921.41;4383172;32;20072;-69
2020/12/19 07:37:17;;;;;;;1.98;1.90;;;;;;;4.49;100.00;100919.41;4398865;32;20065;-68
2020/12/19 07:39:46;;;;;;;1.83;1.83;;;;;;;4.56;100.00;100922.25;4388660;32;20068;-70
2020/12/19 07:42:11;;;;;;;2.53;2.42;;;;;;;4.63;100.00;100919.78;4394166;32;20187;-69
2020/12/19 07:44:37;;;;;;;2.40;2.30;;;;;;;4.63;100.00;100902.03;4375678;32;20073;-71
2020/12/19 07:47:09;;;;;;;2.10;2.00;;;;;;;4.78;100.00;100915.47;4386264;32;20205;-72
2020/12/19 07:49:37;;;;;;;2.12;2.03;;;;;;;4.83;100.00;100913.16;4395962;32;20175;-73
2020/12/19 07:52:27;;;;;;;2.25;2.15;;;;;;;4.85;100.00;100908.53;4406131;32;20081;-71
2020/12/19 07:54:57;;;;;;;2.30;2.20;;;;;;;4.89;100.00;100904.53;4394318;32;20072;-72
2020/12/19 07:57:23;;;;;;;2.30;2.20;;;;;;;4.94;100.00;100895.28;4387543;32;20080;-71
2020/12/19 07:59:49;;;;;;;2.10;2.00;;;;;;;4.89;100.00;100901.87;4397246;32;20559;-73
2020/12/19 08:02:16;;;;;;;2.20;2.10;;;;;;;4.89;100.00;100899.22;4389682;32;20214;-71
2020/12/19 08:04:47;;;;;;;2.62;2.53;;;;;;;5.00;100.00;100902.53;4397976;32;20068;-71
2020/12/19 08:07:13;;;;;;;2.50;2.40;;;;;;;5.06;100.00;100892.09;4385647;32;20156;-70
2020/12/19 08:09:39;;;;;;;2.10;2.00;;;;;;;5.12;100.00;100895.88;4395070;32;20091;-71
2020/12/19 08:12:04;;;;;;;2.22;2.12;;;;;;;4.82;100.00;100832.00;4393856;32;20073;-70
2020/12/19 08:14:30;;;;;;;2.62;2.53;;;;;;;5.20;100.00;100879.97;4383972;32;20072;-72
2020/12/19 08:16:55;;;;;;;2.10;2.00;;;;;;;5.24;100.00;100872.50;4392498;32;20069;-72
2020/12/19 08:19:35;;;;;;;2.15;2.05;;;;;;;5.25;100.00;100851.13;4401371;32;20124;-71
2020/12/19 08:22:03;;;;;;;2.10;2.00;;;;;;;5.35;100.00;100855.44;4394610;32;20196;-71
2020/12/19 08:24:29;;;;;;;2.62;2.53;;;;;;;5.38;100.00;100844.47;4388813;32;20830;-73
2020/12/19 08:27:32;;;;;;;2.20;2.10;;;;;;;5.43;100.00;100850.06;4382765;32;20338;-71
2020/12/19 08:30:09;;;;;;;;;;;;;;;5.44;100.00;100849.91;4397942;32;20089;-72
2020/12/19 08:32:35;;;;;;;2.10;2.00;;;;;;;5.41;100.00;100854.72;4411367;32;20043;-72
2020/12/19 08:35:00;;;;;;;2.30;2.20;;;;;;;5.49;100.00;100864.50;4390159;32;20528;-70
2020/12/19 08:37:26;;;;;;;2.10;2.00;;;;;;;5.55;100.00;100872.59;4380671;32;20607;-71
2020/12/19 08:40:14;;;;;;;2.22;2.12;;;;;;;5.58;100.00;100880.22;4382209;32;20653;-72
2020/12/19 08:42:40;;;;;;;2.30;2.20;;;;;;;5.62;100.00;100886.00;4404100;32;20516;-73
2020/12/19 08:45:16;;;;;;;2.28;2.17;;;;;;;5.64;100.00;100881.37;4394724;32;20369;-72
2020/12/19 08:47:42;;;;;;;2.08;2.00;;;;;;;5.73;100.00;100876.84;4392400;32;20195;-73
2020/12/19 08:50:08;;;;;;;2.58;2.33;;;;;;;5.80;100.00;100878.63;4381421;32;20102;-70
2020/12/19 08:52:33;;;;;;;2.20;2.10;;;;;;;5.90;100.00;100882.88;4379628;32;20421;-75
2020/12/19 08:54:59;;;;;;;2.15;2.05;;;;;;;5.87;100.00;100878.78;4382484;32;20065;-74
2020/12/19 08:57:31;;;;;;;2.30;2.20;;;;;;;5.99;100.00;100892.53;4380301;32;20512;-73
2020/12/19 09:00:13;;;;;;;2.92;2.70;;;;;;;6.05;100.00;100888.34;4398731;32;20086;-72
2020/12/19 09:02:38;;;;;;;2.72;2.62;;;;;;;6.08;100.00;100885.34;4394082;32;20305;-72
2020/12/19 09:05:05;;;;;;;2.47;2.37;;;;;;;6.12;100.00;100891.94;4395155;32;20100;-72
2020/12/19 09:07:30;;;;;;;2.40;2.30;;;;;;;6.13;100.00;100888.31;4383950;32;20081;-73
2020/12/19 09:09:55;;;;;;;2.20;2.10;;;;;;;6.18;100.00;100885.94;4395975;32;20080;-73
2020/12/19 09:12:22;;;;;;;2.20;2.10;;;;;;;6.25;100.00;100894.03;4403908;32;20502;-72
2020/12/19 09:14:48;;;;;;;2.58;2.47;;;;;;;6.31;100.00;100891.53;4380333;32;20458;-73
2020/12/19 09:17:30;;;;;;;3.80;3.65;;;;;;;6.34;100.00;100885.00;4395156;32;20061;-74
2020/12/19 09:20:05;;;;;;;2.20;2.10;;;;;;;6.41;100.00;100885.97;4396513;32;20064;-73
2020/12/19 09:22:30;;;;;;;2.10;2.00;;;;;;;6.48;100.00;100892.22;4399406;32;20060;-72
2020/12/19 09:24:55;;;;;;;2.17;2.08;;;;;;;6.52;100.00;100898.00;4380988;32;20107;-73
2020/12/19 09:27:21;;;;;;;2.53;2.42;;;;;;;6.55;100.00;100887.03;4384746;32;20143;-72
2020/12/19 09:29:46;;;;;;;2.30;2.20;;;;;;;6.61;100.00;100890.81;4399467;32;20061;-73
2020/12/19 09:32:12;;;;;;;2.20;2.10;;;;;;;6.67;100.00;100892.75;4397583;32;20326;-72
2020/12/19 09:34:37;;;;;;;2.62;2.53;;;;;;;6.64;100.00;100882.47;4395264;32;20077;-73
2020/12/19 09:37:02;;;;;;;2.20;2.10;;;;;;;6.76;100.00;100892.53;4397684;32;20182;-73
2020/12/19 09:39:28;;;;;;;2.75;2.58;;;;;;;6.85;100.00;100897.78;4383792;32;20583;-72
2020/12/19 09:41:53;;;;;;;2.40;2.30;;;;;;;6.92;100.00;100891.53;4399179;32;20072;-74
2020/12/19 09:44:19;;;;;;;3.15;2.55;;;;;;;7.00;100.00;100898.59;4399164;32;20123;-74
2020/12/19 09:46:47;;;;;;;2.30;2.20;;;;;;;7.02;100.00;100907.25;4394162;32;20473;-72
2020/12/19 09:49:12;;;;;;;2.40;2.30;;;;;;;7.09;100.00;100899.38;4383635;32;20068;-73
2020/12/19 09:51:38;;;;;;;2.50;2.40;;;;;;;7.19;100.00;100904.44;4395198;32;20609;-72
2020/12/19 09:54:03;;;;;;;2.62;2.53;;;;;;;7.24;100.00;100902.06;4396366;32;20077;-73
2020/12/19 09:56:29;;;;;;;2.30;2.20;;;;;;;7.28;100.00;100903.38;4401486;32;20096;-73
2020/12/19 09:58:54;;;;;;;2.28;2.17;;;;;;;7.33;99.97;100896.47;4388404;32;20085;-72
2020/12/19 10:01:19;;;;;;;2.60;2.50;;;;;;;7.14;98.68;100843.81;4395299;32;20106;-75
2020/12/19 10:03:45;;;;;;;2.22;2.12;;;;;;;7.55;98.64;100898.41;4397832;32;20508;-72
2020/12/19 10:06:13;;;;;;;2.50;2.40;;;;;;;7.60;97.85;100898.69;4397520;32;20609;-74
2020/12/19 10:08:39;;;;;;;2.40;2.30;;;;;;;7.66;97.38;100890.78;4385027;32;20091;-74
2020/12/19 10:11:04;;;;;;;2.37;2.28;;;;;;;7.71;96.82;100888.41;4396610;32;20432;-72
2020/12/19 10:13:30;;;;;;;2.20;2.10;;;;;;;7.80;96.21;100886.47;4383119;32;20168;-72
2020/12/19 10:15:55;;;;;;;2.20;2.10;;;;;;;7.84;96.32;100882.41;4391277;32;20077;-73
2020/12/19 10:18:20;;;;;;;4.07;3.87;;;;;;;7.89;95.46;100874.69;4378763;32;20093;-74
2020/12/19 10:20:46;;;;;;;2.53;2.42;;;;;;;7.99;95.61;100871.72;4396977;32;20084;-72
2020/12/19 10:23:11;;;;;;;3.10;3.00;;;;;;;8.03;94.60;100873.00;4394012;32;20064;-72
2020/12/19 10:25:36;;;;;;;2.50;2.40;;;;;;;8.23;93.90;100878.56;4400154;32;20069;-74
2020/12/19 10:28:02;;;;;;;2.40;2.30;;;;;;;8.28;93.64;100881.50;4395511;32;20069;-72
2020/12/19 10:30:27;;;;;;;2.10;2.00;;;;;;;8.50;92.14;100886.03;4394955;32;20069;-72
2020/12/19 10:32:53;;;;;;;2.33;2.22;;;;;;;8.60;91.87;100875.88;4393909;32;20450;-72
2020/12/19 10:35:18;;;;;;;2.60;2.50;;;;;;;8.69;92.02;100874.72;4395833;32;20539;-73
2020/12/19 10:37:43;;;;;;;2.20;2.10;;;;;;;8.78;90.79;100867.44;4398509;32;20083;-74
2020/12/19 10:40:09;;;;;;;2.55;2.45;;;;;;;8.87;89.76;100860.13;4395552;32;20207;-72
2020/12/19 10:42:34;;;;;;;2.33;2.22;;;;;;;8.97;89.01;100855.28;4396828;32;20068;-72
2020/12/19 10:45:00;;;;;;;2.50;2.40;;;;;;;9.04;89.28;100856.12;4381129;32;20095;-73
2020/12/19 10:47:25;;;;;;;2.60;2.50;;;;;;;9.13;88.81;100849.63;4397811;32;20655;-73
2020/12/19 10:49:51;;;;;;;2.80;2.70;;;;;;;9.26;88.30;100851.56;4378376;32;20971;-73
2020/12/19 10:52:17;;;;;;;2.20;2.10;;;;;;;9.32;88.09;100849.94;4393465;32;20895;-75
2020/12/19 10:54:42;;;;;;;3.08;2.97;;;;;;;9.34;87.69;100848.72;4382248;32;20739;-70
2020/12/19 10:57:07;;;;;;;2.40;2.30;;;;;;;9.25;87.87;100844.56;4398755;32;20073;-70
2020/12/19 10:59:33;;;;;;;2.33;2.22;;;;;;;9.26;88.24;100848.06;4403573;32;20685;-70
2020/12/19 11:01:58;;;;;;;2.80;2.70;;;;;;;9.29;87.66;100845.81;4397001;32;20090;-70
2020/12/19 11:04:24;;;;;;;2.70;2.60;;;;;;;8.51;87.61;100712.56;4402710;32;20143;-70
2020/12/19 11:06:50;;;;;;;2.40;2.30;;;;;;;9.46;87.32;100842.84;4392009;32;20610;-71
2020/12/19 11:09:16;;;;;;;2.60;2.50;;;;;;;9.56;86.01;100832.63;4398440;32;20061;-73
2020/12/19 11:11:42;;;;;;;2.80;2.70;;;;;;;9.69;85.39;100838.03;4397763;32;20061;-73
2020/12/19 11:14:07;;;;;;;2.40;2.30;;;;;;;9.90;84.67;100844.25;4385583;32;20176;-74
2020/12/19 11:16:33;;;;;;;2.60;2.50;;;;;;;9.97;84.86;100831.75;4398481;32;20064;-73
2020/12/19 11:18:58;;;;;;;2.35;2.25;;;;;;;10.07;84.75;100829.50;4388577;32;20748;-72
2020/12/19 11:21:24;;;;;;;2.50;2.40;;;;;;;10.13;84.48;100828.69;4382149;32;20373;-73
2020/12/19 11:23:49;;;;;;;2.53;2.42;;;;;;;10.24;83.91;100827.25;4382894;32;20523;-73
2020/12/19 11:26:21;;;;;;;2.30;2.20;;;;;;;10.31;83.50;100820.13;4401511;32;20099;-73